PWSweather.com
Personal Weather Stations
Station Observations
CANDIOTINO
Barrio Candioti Norte, Santa FeAR 3000

Barrio Candioti NorteSanta FeAR 3000

Lat: -31.632778, Lon: -60.695556

Elevation: 69

Station Type: WH-1081

http://www.eltiempoensantafe.com.ar

High Low Average
Temperature 70.0°F21.1°C 54.7°F12.6°C 61.1°F16.2°C
Dew Point 65.1°F18.4°C 31.0°F-0.6°C 45.4°F7.4°C
Winds 20.6 mph 33.2 kmh 1.6 mph 2.6 kmh 10.0 mph SSE16.1 kmh SSE
Wind Gusts 34.2 mph55.0 kmh 3.8 mph6.1 kmh 20.0 mph32.2 kmh
Humidity 88% 29% 59%
Pressure 30.04 in1017.3 mb 29.62 in1003.0 mb -
Precipitation 0.00 in0.0 mm - -
Hour Temp Dew Point Humidity Winds Wind Gusts Pressure Precip Precip Rate Daily Precip Total
12:00 AM 70.0°F21.1°C 65.0°F18.3°C 84% 5.4 mph SSE8.7 kmh SSE 11.4 mph18.3 kmh 29.64 in1003.7 mb 0.00 in0.0 mm 0.00 in0.0 mm 0.00 in0.0 mm
12:15 AM 69.8°F21.0°C 65.1°F18.4°C 85% 8.3 mph S13.4 kmh S 10.7 mph17.2 kmh 29.64 in1003.7 mb 0.00 in0.0 mm 0.00 in0.0 mm 0.00 in0.0 mm
12:30 AM 69.4°F20.8°C 65.1°F18.4°C 86% 9.2 mph S14.8 kmh S 11.4 mph18.3 kmh 29.63 in1003.4 mb 0.00 in0.0 mm 0.00 in0.0 mm 0.00 in0.0 mm
12:45 AM 69.3°F20.7°C 64.6°F18.1°C 85% 8.3 mph SSE13.4 kmh SSE 15.9 mph25.6 kmh 29.63 in1003.4 mb 0.00 in0.0 mm 0.00 in0.0 mm 0.00 in0.0 mm
01:00 AM 69.4°F20.8°C 64.8°F18.2°C 85% 9.2 mph S14.8 kmh S 13.0 mph20.9 kmh 29.65 in1004.1 mb 0.00 in0.0 mm 0.00 in0.0 mm 0.00 in0.0 mm
01:15 AM 68.5°F20.3°C 64.2°F17.9°C 86% 9.8 mph S15.8 kmh S 18.3 mph29.5 kmh 29.64 in1003.7 mb 0.00 in0.0 mm 0.00 in0.0 mm 0.00 in0.0 mm
01:30 AM 68.0°F20.0°C 63.7°F17.6°C 86% 12.1 mph S19.5 kmh S 20.6 mph33.2 kmh 29.64 in1003.7 mb 0.00 in0.0 mm 0.00 in0.0 mm 0.00 in0.0 mm
01:45 AM 67.3°F19.6°C 63.6°F17.6°C 88% 8.3 mph S13.4 kmh S 22.8 mph36.7 kmh 29.63 in1003.4 mb 0.00 in0.0 mm 0.00 in0.0 mm 0.00 in0.0 mm
02:00 AM 66.7°F19.3°C 62.8°F17.1°C 87% 8.3 mph SSE13.4 kmh SSE 19.7 mph31.7 kmh 29.64 in1003.7 mb 0.00 in0.0 mm 0.00 in0.0 mm 0.00 in0.0 mm
02:15 AM 66.6°F19.2°C 62.9°F17.2°C 88% 9.8 mph S15.8 kmh S 18.3 mph29.5 kmh 29.64 in1003.7 mb 0.00 in0.0 mm 0.00 in0.0 mm 0.00 in0.0 mm
02:30 AM 65.7°F18.7°C 62.0°F16.7°C 88% 13.0 mph S20.9 kmh S 20.6 mph33.2 kmh 29.62 in1003.0 mb 0.00 in0.0 mm 0.00 in0.0 mm 0.00 in0.0 mm
02:45 AM 64.0°F17.8°C 60.1°F15.6°C 87% 9.8 mph S15.8 kmh S 22.1 mph35.6 kmh 29.63 in1003.4 mb 0.00 in0.0 mm 0.00 in0.0 mm 0.00 in0.0 mm
03:00 AM 63.1°F17.3°C 58.9°F14.9°C 86% 6.0 mph SE9.7 kmh SE 19.7 mph31.7 kmh 29.63 in1003.4 mb 0.00 in0.0 mm 0.00 in0.0 mm 0.00 in0.0 mm
03:15 AM 62.8°F17.1°C 58.5°F14.7°C 86% 10.7 mph SSE17.2 kmh SSE 22.1 mph35.6 kmh 29.63 in1003.4 mb 0.00 in0.0 mm 0.00 in0.0 mm 0.00 in0.0 mm
03:30 AM 61.9°F16.6°C 58.0°F14.4°C 87% 12.1 mph SSE19.5 kmh SSE 22.1 mph35.6 kmh 29.63 in1003.4 mb 0.00 in0.0 mm 0.00 in0.0 mm 0.00 in0.0 mm
03:45 AM 61.7°F16.5°C 57.8°F14.3°C 87% 15.2 mph SSE24.5 kmh SSE 22.8 mph36.7 kmh 29.64 in1003.7 mb 0.00 in0.0 mm 0.00 in0.0 mm 0.00 in0.0 mm
04:00 AM 61.2°F16.2°C 56.3°F13.5°C 84% 4.5 mph SSE7.2 kmh SSE 25.1 mph40.4 kmh 29.64 in1003.7 mb 0.00 in0.0 mm 0.00 in0.0 mm 0.00 in0.0 mm
04:15 AM 60.6°F15.9°C 55.8°F13.2°C 84% 8.3 mph SE13.4 kmh SE 22.1 mph35.6 kmh 29.65 in1004.1 mb 0.00 in0.0 mm 0.00 in0.0 mm 0.00 in0.0 mm
04:30 AM 60.3°F15.7°C 55.4°F13.0°C 84% 16.8 mph SSE27.0 kmh SSE 21.3 mph34.3 kmh 29.66 in1004.4 mb 0.00 in0.0 mm 0.00 in0.0 mm 0.00 in0.0 mm
04:45 AM 59.9°F15.5°C 54.7°F12.6°C 83% 15.9 mph SE25.6 kmh SE 24.4 mph39.3 kmh 29.67 in1004.7 mb 0.00 in0.0 mm 0.00 in0.0 mm 0.00 in0.0 mm
05:00 AM 59.5°F15.3°C 54.1°F12.3°C 82% 14.5 mph SSE23.3 kmh SSE 27.3 mph43.9 kmh 29.67 in1004.7 mb 0.00 in0.0 mm 0.00 in0.0 mm 0.00 in0.0 mm
05:15 AM 59.4°F15.2°C 53.2°F11.8°C 80% 17.4 mph SSE28.0 kmh SSE 28.2 mph45.4 kmh 29.68 in1005.1 mb 0.00 in0.0 mm 0.00 in0.0 mm 0.00 in0.0 mm
05:30 AM 59.4°F15.2°C 53.2°F11.8°C 80% 18.3 mph SSE29.5 kmh SSE 28.9 mph46.5 kmh 29.66 in1004.4 mb 0.00 in0.0 mm 0.00 in0.0 mm 0.00 in0.0 mm
05:45 AM 59.4°F15.2°C 52.9°F11.6°C 79% 20.6 mph SSE33.2 kmh SSE 30.4 mph48.9 kmh 29.70 in1005.8 mb 0.00 in0.0 mm 0.00 in0.0 mm 0.00 in0.0 mm
06:00 AM 59.2°F15.1°C 52.3°F11.3°C 78% 9.2 mph SSE14.8 kmh SSE 22.8 mph36.7 kmh 29.73 in1006.8 mb 0.00 in0.0 mm 0.00 in0.0 mm 0.00 in0.0 mm
06:15 AM 59.4°F15.2°C 52.5°F11.4°C 78% 9.8 mph SSE15.8 kmh SSE 22.1 mph35.6 kmh 29.76 in1007.8 mb 0.00 in0.0 mm 0.00 in0.0 mm 0.00 in0.0 mm
06:30 AM 59.2°F15.1°C 52.0°F11.1°C 77% 13.6 mph SE21.9 kmh SE 25.1 mph40.4 kmh 29.76 in1007.8 mb 0.00 in0.0 mm 0.00 in0.0 mm 0.00 in0.0 mm
06:45 AM 59.2°F15.1°C 52.7°F11.5°C 79% 10.7 mph SE17.2 kmh SE 26.6 mph42.8 kmh 29.78 in1008.5 mb 0.00 in0.0 mm 0.00 in0.0 mm 0.00 in0.0 mm
07:00 AM 59.0°F15.0°C 52.9°F11.6°C 80% 10.7 mph S17.2 kmh S 21.3 mph34.3 kmh 29.80 in1009.1 mb 0.00 in0.0 mm 0.00 in0.0 mm 0.00 in0.0 mm
07:15 AM 59.2°F15.1°C 53.0°F11.7°C 80% 10.7 mph S17.2 kmh S 19.7 mph31.7 kmh 29.81 in1009.5 mb 0.00 in0.0 mm 0.00 in0.0 mm 0.00 in0.0 mm
07:30 AM 59.0°F15.0°C 53.2°F11.8°C 81% 13.0 mph SSE20.9 kmh SSE 19.0 mph30.6 kmh 29.83 in1010.2 mb 0.00 in0.0 mm 0.00 in0.0 mm 0.00 in0.0 mm
07:45 AM 59.0°F15.0°C 51.8°F11.0°C 77% 9.8 mph SE15.8 kmh SE 22.8 mph36.7 kmh 29.84 in1010.5 mb 0.00 in0.0 mm 0.00 in0.0 mm 0.00 in0.0 mm
08:00 AM 59.0°F15.0°C 51.5°F10.8°C 76% 16.8 mph SSE27.0 kmh SSE 25.9 mph41.7 kmh 29.85 in1010.8 mb 0.00 in0.0 mm 0.00 in0.0 mm 0.00 in0.0 mm
08:15 AM 59.2°F15.1°C 50.5°F10.3°C 73% 9.8 mph S15.8 kmh S 24.4 mph39.3 kmh 29.86 in1011.2 mb 0.00 in0.0 mm 0.00 in0.0 mm 0.00 in0.0 mm
08:30 AM 59.0°F15.0°C 50.0°F10.0°C 72% 14.5 mph SSE23.3 kmh SSE 25.9 mph41.7 kmh 29.87 in1011.5 mb 0.00 in0.0 mm 0.00 in0.0 mm 0.00 in0.0 mm
08:45 AM 59.0°F15.0°C 50.0°F10.0°C 72% 13.6 mph SSE21.9 kmh SSE 23.5 mph37.8 kmh 29.88 in1011.9 mb 0.00 in0.0 mm 0.00 in0.0 mm 0.00 in0.0 mm
09:00 AM 59.0°F15.0°C 49.2°F9.6°C 70% 13.0 mph SSE20.9 kmh SSE 26.6 mph42.8 kmh 29.89 in1012.2 mb 0.00 in0.0 mm 0.00 in0.0 mm 0.00 in0.0 mm
09:15 AM 59.2°F15.1°C 49.8°F9.9°C 71% 12.1 mph SSE19.5 kmh SSE 24.4 mph39.3 kmh 29.90 in1012.5 mb 0.00 in0.0 mm 0.00 in0.0 mm 0.00 in0.0 mm
09:30 AM 59.2°F15.1°C 49.4°F9.7°C 70% 12.1 mph SE19.5 kmh SE 28.2 mph45.4 kmh 29.91 in1012.9 mb 0.00 in0.0 mm 0.00 in0.0 mm 0.00 in0.0 mm
09:45 AM 59.4°F15.2°C 48.8°F9.3°C 68% 15.2 mph S24.5 kmh S 26.6 mph42.8 kmh 29.91 in1012.9 mb 0.00 in0.0 mm 0.00 in0.0 mm 0.00 in0.0 mm
10:00 AM 59.9°F15.5°C 48.1°F8.9°C 65% 19.7 mph SE31.7 kmh SE 28.2 mph45.4 kmh 29.91 in1012.9 mb 0.00 in0.0 mm 0.00 in0.0 mm 0.00 in0.0 mm
10:15 AM 60.4°F15.8°C 46.5°F8.1°C 60% 19.7 mph SSE31.7 kmh SSE 25.1 mph40.4 kmh 29.91 in1012.9 mb 0.00 in0.0 mm 0.00 in0.0 mm 0.00 in0.0 mm
10:30 AM 61.2°F16.2°C 44.4°F6.9°C 54% 14.5 mph SSE23.3 kmh SSE 23.5 mph37.8 kmh 29.93 in1013.5 mb 0.00 in0.0 mm 0.00 in0.0 mm 0.00 in0.0 mm
10:45 AM 61.3°F16.3°C 43.6°F6.4°C 52% 9.8 mph SSE15.8 kmh SSE 28.9 mph46.5 kmh 29.93 in1013.5 mb 0.00 in0.0 mm 0.00 in0.0 mm 0.00 in0.0 mm
11:00 AM 60.6°F15.9°C 44.9°F7.2°C 56% 15.9 mph S25.6 kmh S 27.3 mph43.9 kmh 29.94 in1013.9 mb 0.00 in0.0 mm 0.00 in0.0 mm 0.00 in0.0 mm
11:15 AM 59.7°F15.4°C 43.5°F6.4°C 55% 19.0 mph SSE30.6 kmh SSE 27.3 mph43.9 kmh 29.94 in1013.9 mb 0.00 in0.0 mm 0.00 in0.0 mm 0.00 in0.0 mm
11:30 AM 60.4°F15.8°C 42.2°F5.7°C 51% 13.0 mph S20.9 kmh S 27.3 mph43.9 kmh 29.95 in1014.2 mb 0.00 in0.0 mm 0.00 in0.0 mm 0.00 in0.0 mm
11:45 AM 61.0°F16.1°C 40.1°F4.5°C 46% 13.6 mph SSE21.9 kmh SSE 32.0 mph51.5 kmh 29.96 in1014.6 mb 0.00 in0.0 mm 0.00 in0.0 mm 0.00 in0.0 mm
12:00 PM 61.3°F16.3°C 40.4°F4.7°C 46% 17.4 mph SSE28.0 kmh SSE 28.2 mph45.4 kmh 29.96 in1014.6 mb 0.00 in0.0 mm 0.00 in0.0 mm 0.00 in0.0 mm
12:15 PM 61.3°F16.3°C 38.7°F3.7°C 43% 18.3 mph SSE29.5 kmh SSE 28.9 mph46.5 kmh 29.96 in1014.6 mb 0.00 in0.0 mm 0.00 in0.0 mm 0.00 in0.0 mm
12:30 PM 62.1°F16.7°C 39.3°F4.1°C 43% 19.0 mph SSE30.6 kmh SSE 34.2 mph55.0 kmh 29.97 in1014.9 mb 0.00 in0.0 mm 0.00 in0.0 mm 0.00 in0.0 mm
12:45 PM 61.2°F16.2°C 38.5°F3.6°C 43% 15.9 mph SSE25.6 kmh SSE 32.0 mph51.5 kmh 29.97 in1014.9 mb 0.00 in0.0 mm 0.00 in0.0 mm 0.00 in0.0 mm
01:00 PM 60.8°F16.0°C 37.6°F3.1°C 42% 14.5 mph SSE23.3 kmh SSE 28.9 mph46.5 kmh 29.95 in1014.2 mb 0.00 in0.0 mm 0.00 in0.0 mm 0.00 in0.0 mm
01:15 PM 61.2°F16.2°C 36.7°F2.6°C 40% 12.1 mph S19.5 kmh S 25.9 mph41.7 kmh 29.96 in1014.6 mb 0.00 in0.0 mm 0.00 in0.0 mm 0.00 in0.0 mm
01:30 PM 60.1°F15.6°C 37.5°F3.1°C 43% 16.8 mph SSE27.0 kmh SSE 29.8 mph48.0 kmh 29.98 in1015.2 mb 0.00 in0.0 mm 0.00 in0.0 mm 0.00 in0.0 mm
01:45 PM 59.9°F15.5°C 36.8°F2.7°C 42% 15.9 mph SE25.6 kmh SE 24.4 mph39.3 kmh 29.97 in1014.9 mb 0.00 in0.0 mm 0.00 in0.0 mm 0.00 in0.0 mm
02:00 PM 60.8°F16.0°C 37.0°F2.8°C 41% 15.9 mph SSE25.6 kmh SSE 25.1 mph40.4 kmh 29.95 in1014.2 mb 0.00 in0.0 mm 0.00 in0.0 mm 0.00 in0.0 mm
02:15 PM 61.2°F16.2°C 36.0°F2.2°C 39% 12.1 mph SSE19.5 kmh SSE 23.5 mph37.8 kmh 29.96 in1014.6 mb 0.00 in0.0 mm 0.00 in0.0 mm 0.00 in0.0 mm
02:30 PM 61.5°F16.4°C 33.6°F0.9°C 35% 15.2 mph SSE24.5 kmh SSE 26.6 mph42.8 kmh 29.95 in1014.2 mb 0.00 in0.0 mm 0.00 in0.0 mm 0.00 in0.0 mm
02:45 PM 62.1°F16.7°C 34.1°F1.2°C 35% 13.6 mph SE21.9 kmh SE 27.3 mph43.9 kmh 29.95 in1014.2 mb 0.00 in0.0 mm 0.00 in0.0 mm 0.00 in0.0 mm
03:00 PM 61.5°F16.4°C 32.9°F0.5°C 34% 9.2 mph SSE14.8 kmh SSE 24.4 mph39.3 kmh 29.96 in1014.6 mb 0.00 in0.0 mm 0.00 in0.0 mm 0.00 in0.0 mm
03:15 PM 61.2°F16.2°C 31.1°F-0.5°C 32% 10.7 mph SSE17.2 kmh SSE 23.5 mph37.8 kmh 29.95 in1014.2 mb 0.00 in0.0 mm 0.00 in0.0 mm 0.00 in0.0 mm
03:30 PM 61.7°F16.5°C 32.3°F0.2°C 33% 10.7 mph SSE17.2 kmh SSE 16.8 mph27.0 kmh 29.96 in1014.6 mb 0.00 in0.0 mm 0.00 in0.0 mm 0.00 in0.0 mm
03:45 PM 62.2°F16.8°C 32.8°F0.4°C 33% 5.4 mph SSE8.7 kmh SSE 19.7 mph31.7 kmh 29.95 in1014.2 mb 0.00 in0.0 mm 0.00 in0.0 mm 0.00 in0.0 mm
04:00 PM 63.9°F17.7°C 35.0°F1.7°C 34% 9.8 mph SSE15.8 kmh SSE 16.8 mph27.0 kmh 29.95 in1014.2 mb 0.00 in0.0 mm 0.00 in0.0 mm 0.00 in0.0 mm
04:15 PM 63.7°F17.6°C 32.5°F0.3°C 31% 12.1 mph SSE19.5 kmh SSE 19.0 mph30.6 kmh 29.95 in1014.2 mb 0.00 in0.0 mm 0.00 in0.0 mm 0.00 in0.0 mm
04:30 PM 63.5°F17.5°C 33.1°F0.6°C 32% 9.2 mph SSE14.8 kmh SSE 22.8 mph36.7 kmh 29.95 in1014.2 mb 0.00 in0.0 mm 0.00 in0.0 mm 0.00 in0.0 mm
04:45 PM 63.0°F17.2°C 31.1°F-0.5°C 30% 12.1 mph SE19.5 kmh SE 23.5 mph37.8 kmh 29.95 in1014.2 mb 0.00 in0.0 mm 0.00 in0.0 mm 0.00 in0.0 mm
05:00 PM 63.5°F17.5°C 32.3°F0.2°C 31% 8.3 mph SSE13.4 kmh SSE 19.7 mph31.7 kmh 29.94 in1013.9 mb 0.00 in0.0 mm 0.00 in0.0 mm 0.00 in0.0 mm
05:15 PM 63.9°F17.7°C 31.0°F-0.6°C 29% 9.8 mph SSE15.8 kmh SSE 18.3 mph29.5 kmh 29.95 in1014.2 mb 0.00 in0.0 mm 0.00 in0.0 mm 0.00 in0.0 mm
05:30 PM 63.0°F17.2°C 31.9°F-0.1°C 31% 9.2 mph SSE14.8 kmh SSE 16.8 mph27.0 kmh 29.95 in1014.2 mb 0.00 in0.0 mm 0.00 in0.0 mm 0.00 in0.0 mm
05:45 PM 63.3°F17.4°C 32.2°F0.1°C 31% 7.6 mph SSE12.2 kmh SSE 18.3 mph29.5 kmh 29.95 in1014.2 mb 0.00 in0.0 mm 0.00 in0.0 mm 0.00 in0.0 mm
06:00 PM 64.2°F17.9°C 33.8°F1.0°C 32% 5.4 mph SSE8.7 kmh SSE 14.5 mph23.3 kmh 29.95 in1014.2 mb 0.00 in0.0 mm 0.00 in0.0 mm 0.00 in0.0 mm
06:15 PM 65.1°F18.4°C 36.8°F2.7°C 35% 8.3 mph S13.4 kmh S 13.0 mph20.9 kmh 29.95 in1014.2 mb 0.00 in0.0 mm 0.00 in0.0 mm 0.00 in0.0 mm
06:30 PM 64.0°F17.8°C 33.6°F0.9°C 32% 8.3 mph S13.4 kmh S 15.9 mph25.6 kmh 29.95 in1014.2 mb 0.00 in0.0 mm 0.00 in0.0 mm 0.00 in0.0 mm
06:45 PM 63.0°F17.2°C 34.2°F1.2°C 34% 8.3 mph S13.4 kmh S 14.5 mph23.3 kmh 29.96 in1014.6 mb 0.00 in0.0 mm 0.00 in0.0 mm 0.00 in0.0 mm
07:00 PM 61.3°F16.3°C 34.9°F1.6°C 37% 4.5 mph SSE7.2 kmh SSE 13.0 mph20.9 kmh 29.96 in1014.6 mb 0.00 in0.0 mm 0.00 in0.0 mm 0.00 in0.0 mm
07:15 PM 59.9°F15.5°C 37.4°F3.0°C 43% 6.0 mph SE9.7 kmh SE 13.0 mph20.9 kmh 29.96 in1014.6 mb 0.00 in0.0 mm 0.00 in0.0 mm 0.00 in0.0 mm
07:30 PM 59.5°F15.3°C 36.4°F2.4°C 42% 7.6 mph S12.2 kmh S 13.6 mph21.9 kmh 29.96 in1014.6 mb 0.00 in0.0 mm 0.00 in0.0 mm 0.00 in0.0 mm
07:45 PM 59.2°F15.1°C 37.3°F2.9°C 44% 3.1 mph SSE5.0 kmh SSE 10.7 mph17.2 kmh 29.97 in1014.9 mb 0.00 in0.0 mm 0.00 in0.0 mm 0.00 in0.0 mm
08:00 PM 58.6°F14.8°C 38.5°F3.6°C 47% 3.1 mph SE5.0 kmh SE 9.2 mph14.8 kmh 29.98 in1015.2 mb 0.00 in0.0 mm 0.00 in0.0 mm 0.00 in0.0 mm
08:15 PM 58.1°F14.5°C 39.1°F3.9°C 49% 3.1 mph S5.0 kmh S 7.6 mph12.2 kmh 29.98 in1015.2 mb 0.00 in0.0 mm 0.00 in0.0 mm 0.00 in0.0 mm
08:30 PM 57.7°F14.3°C 38.7°F3.7°C 49% 3.8 mph SE6.1 kmh SE 8.3 mph13.4 kmh 29.99 in1015.6 mb 0.00 in0.0 mm 0.00 in0.0 mm 0.00 in0.0 mm
08:45 PM 57.6°F14.2°C 38.6°F3.7°C 49% 5.4 mph SE8.7 kmh SE 7.6 mph12.2 kmh 29.99 in1015.6 mb 0.00 in0.0 mm 0.00 in0.0 mm 0.00 in0.0 mm
09:00 PM 57.2°F14.0°C 38.7°F3.7°C 50% 3.8 mph SSE6.1 kmh SSE 8.3 mph13.4 kmh 29.99 in1015.6 mb 0.00 in0.0 mm 0.00 in0.0 mm 0.00 in0.0 mm
09:15 PM 56.8°F13.8°C 38.9°F3.8°C 51% 4.5 mph SSE7.2 kmh SSE 11.4 mph18.3 kmh 30.01 in1016.3 mb 0.00 in0.0 mm 0.00 in0.0 mm 0.00 in0.0 mm
09:30 PM 56.5°F13.6°C 39.6°F4.2°C 53% 3.8 mph SE6.1 kmh SE 5.4 mph8.7 kmh 30.02 in1016.6 mb 0.00 in0.0 mm 0.00 in0.0 mm 0.00 in0.0 mm
09:45 PM 56.3°F13.5°C 39.4°F4.1°C 53% 2.2 mph SE3.5 kmh SE 6.0 mph9.7 kmh 30.02 in1016.6 mb 0.00 in0.0 mm 0.00 in0.0 mm 0.00 in0.0 mm
10:00 PM 56.3°F13.5°C 39.9°F4.4°C 54% 3.1 mph S5.0 kmh S 4.5 mph7.2 kmh 30.02 in1016.6 mb 0.00 in0.0 mm 0.00 in0.0 mm 0.00 in0.0 mm
10:15 PM 56.1°F13.4°C 39.7°F4.3°C 54% 2.2 mph S3.5 kmh S 3.8 mph6.1 kmh 30.03 in1016.9 mb 0.00 in0.0 mm 0.00 in0.0 mm 0.00 in0.0 mm
10:30 PM 55.9°F13.3°C 40.0°F4.4°C 55% 1.6 mph SSE2.6 kmh SSE 6.0 mph9.7 kmh 30.03 in1016.9 mb 0.00 in0.0 mm 0.00 in0.0 mm 0.00 in0.0 mm
10:45 PM 55.8°F13.2°C 39.8°F4.3°C 55% 1.6 mph S2.6 kmh S 3.8 mph6.1 kmh 30.03 in1016.9 mb 0.00 in0.0 mm 0.00 in0.0 mm 0.00 in0.0 mm
11:00 PM 55.6°F13.1°C 40.1°F4.5°C 56% 3.8 mph SE6.1 kmh SE 5.4 mph8.7 kmh 30.03 in1016.9 mb 0.00 in0.0 mm 0.00 in0.0 mm 0.00 in0.0 mm
11:15 PM 55.2°F12.9°C 41.6°F5.3°C 60% 2.2 mph SE3.5 kmh SE 6.0 mph9.7 kmh 30.03 in1016.9 mb 0.00 in0.0 mm 0.00 in0.0 mm 0.00 in0.0 mm
11:30 PM 54.9°F12.7°C 41.2°F5.1°C 60% 2.2 mph SSE3.5 kmh SSE 6.0 mph9.7 kmh 30.04 in1017.3 mb 0.00 in0.0 mm 0.00 in0.0 mm 0.00 in0.0 mm
11:45 PM 54.7°F12.6°C 40.6°F4.8°C 59% 2.2 mph SSE3.5 kmh SSE 5.4 mph8.7 kmh 30.03 in1016.9 mb 0.00 in0.0 mm 0.00 in0.0 mm 0.00 in0.0 mm